createdAt,value
2019-03-25T00:00:39.607Z,16.93
2019-03-25T00:03:10.772Z,16.90
2019-03-25T00:05:41.799Z,18.20
2019-03-25T00:08:11.346Z,18.03
2019-03-25T00:10:40.918Z,17.03
2019-03-25T00:13:10.703Z,18.10
2019-03-25T00:15:40.331Z,17.53
2019-03-25T00:18:09.910Z,17.77
2019-03-25T00:20:39.405Z,16.93
2019-03-25T00:23:08.953Z,16.10
2019-03-25T00:25:38.442Z,16.60
2019-03-25T00:28:07.843Z,16.73
2019-03-25T00:30:37.357Z,17.23
2019-03-25T00:33:06.856Z,15.90
2019-03-25T00:35:36.282Z,16.90
2019-03-25T00:38:05.776Z,15.47
2019-03-25T00:40:35.195Z,16.87
2019-03-25T00:43:04.606Z,16.20
2019-03-25T00:45:34.063Z,16.47
2019-03-25T00:48:03.475Z,17.23
2019-03-25T00:50:32.935Z,17.23
2019-03-25T00:53:02.350Z,16.10
2019-03-25T00:55:31.864Z,16.33
2019-03-25T00:58:01.342Z,16.30
2019-03-25T01:00:30.800Z,15.87
2019-03-25T01:03:00.250Z,17.07
2019-03-25T01:05:29.741Z,16.00
2019-03-25T01:07:59.152Z,16.03
2019-03-25T01:10:28.612Z,18.40
2019-03-25T01:12:58.090Z,16.23
2019-03-25T01:15:27.515Z,18.70
2019-03-25T01:17:56.934Z,16.73
2019-03-25T01:20:26.448Z,16.73
2019-03-25T01:22:55.888Z,15.93
2019-03-25T01:25:25.356Z,15.77
2019-03-25T01:27:54.770Z,16.40
2019-03-25T01:30:24.195Z,16.52
2019-03-25T01:32:53.617Z,18.03
2019-03-25T01:35:23.107Z,24.13
2019-03-25T01:37:52.563Z,17.87
2019-03-25T01:40:22.024Z,17.80
2019-03-25T01:42:51.487Z,18.13
2019-03-25T01:45:21.018Z,19.93
2019-03-25T01:47:50.432Z,19.77
2019-03-25T01:50:19.855Z,17.80
2019-03-25T01:52:51.285Z,17.87
2019-03-25T01:55:20.842Z,18.77
2019-03-25T01:57:50.311Z,20.27
2019-03-25T02:00:19.808Z,18.80
2019-03-25T02:02:49.217Z,18.13
2019-03-25T02:05:19.739Z,19.50
2019-03-25T02:07:49.148Z,18.77
2019-03-25T02:10:18.931Z,19.50
2019-03-25T02:12:48.343Z,17.23
2019-03-25T02:15:17.841Z,15.23
2019-03-25T02:17:47.267Z,14.97
2019-03-25T02:20:25.727Z,15.63
2019-03-25T02:22:49.036Z,13.90
2019-03-25T02:25:25.317Z,14.37
2019-03-25T02:27:49.609Z,15.53
2019-03-25T02:30:19.239Z,16.07
2019-03-25T02:32:48.861Z,15.93
2019-03-25T02:35:18.335Z,14.87
2019-03-25T02:37:47.803Z,15.47
2019-03-25T02:40:17.237Z,16.23
2019-03-25T02:42:47.616Z,15.03
2019-03-25T02:45:18.027Z,15.03
2019-03-25T02:47:47.472Z,15.03
2019-03-25T02:50:17.364Z,15.70
2019-03-25T02:52:46.843Z,15.00
2019-03-25T02:55:16.256Z,15.33
2019-03-25T02:57:45.712Z,13.83
2019-03-25T03:00:18.193Z,14.67
2019-03-25T03:02:47.690Z,15.57
2019-03-25T03:05:17.117Z,14.23
2019-03-25T03:07:46.576Z,13.97
2019-03-25T03:10:16.075Z,13.97
2019-03-25T03:12:45.512Z,14.80
2019-03-25T03:15:14.919Z,14.00
2019-03-25T03:17:45.326Z,13.53
2019-03-25T03:20:14.724Z,14.53
2019-03-25T03:22:44.220Z,14.10
2019-03-25T03:25:13.845Z,13.23
2019-03-25T03:27:43.269Z,13.60
2019-03-25T03:30:13.269Z,13.67
2019-03-25T03:32:42.644Z,14.40
2019-03-25T03:35:12.218Z,13.40
2019-03-25T03:37:41.634Z,14.30
2019-03-25T03:40:12.004Z,14.53
2019-03-25T03:42:42.684Z,15.30
2019-03-25T03:45:13.499Z,14.57
2019-03-25T03:47:42.954Z,14.57
2019-03-25T03:50:15.428Z,13.60
2019-03-25T03:52:45.565Z,12.33
2019-03-25T03:55:15.058Z,13.33
2019-03-25T03:57:45.465Z,13.97
2019-03-25T04:00:17.941Z,14.10
2019-03-25T04:02:47.368Z,12.87
2019-03-25T04:05:16.967Z,13.90
2019-03-25T04:07:46.400Z,12.97
2019-03-25T04:10:15.895Z,15.17
2019-03-25T04:12:45.321Z,12.53
2019-03-25T04:15:17.843Z,11.67
2019-03-25T04:17:47.355Z,12.83
2019-03-25T04:20:16.767Z,10.63
2019-03-25T04:22:46.228Z,9.87
2019-03-25T04:25:15.642Z,13.07
2019-03-25T04:27:45.069Z,12.53
2019-03-25T04:30:14.822Z,12.60
2019-03-25T04:32:44.244Z,12.67
2019-03-25T04:35:13.743Z,12.93
2019-03-25T04:37:43.152Z,12.20
2019-03-25T04:40:13.945Z,11.17
2019-03-25T04:42:43.431Z,12.77
2019-03-25T04:45:13.098Z,10.53
2019-03-25T04:47:42.532Z,11.60
2019-03-25T04:50:12.176Z,10.40
2019-03-25T04:52:41.605Z,12.10
2019-03-25T04:55:11.254Z,12.00
2019-03-25T04:57:40.764Z,11.50
2019-03-25T05:00:10.537Z,12.57
2019-03-25T05:02:39.980Z,9.97
2019-03-25T05:05:09.799Z,12.63
2019-03-25T05:07:39.367Z,11.83
2019-03-25T05:10:09.145Z,13.93
2019-03-25T05:12:38.603Z,14.07
2019-03-25T05:15:08.204Z,11.90
2019-03-25T05:17:37.629Z,11.60
2019-03-25T05:20:07.322Z,10.43
2019-03-25T05:22:36.800Z,11.70
2019-03-25T05:25:07.856Z,12.07
2019-03-25T05:27:37.354Z,11.93
2019-03-25T05:30:07.512Z,12.93
2019-03-25T05:32:36.944Z,13.03
2019-03-25T05:35:07.535Z,11.83
2019-03-25T05:37:37.055Z,10.70
2019-03-25T05:40:07.117Z,11.40
2019-03-25T05:42:36.582Z,10.30
2019-03-25T05:45:07.412Z,10.70
2019-03-25T05:47:36.834Z,10.50
2019-03-25T05:50:09.234Z,9.65
2019-03-25T05:52:39.892Z,12.23
2019-03-25T05:55:09.492Z,9.77
2019-03-25T05:57:38.907Z,8.33
2019-03-25T06:00:08.798Z,8.13
2019-03-25T06:02:38.271Z,7.97
2019-03-25T06:05:07.905Z,9.10
2019-03-25T06:07:37.303Z,9.20
2019-03-25T06:10:07.435Z,9.70
2019-03-25T06:12:36.957Z,6.77
2019-03-25T06:15:08.215Z,7.37
2019-03-25T06:17:37.700Z,8.73
2019-03-25T06:20:07.797Z,6.50
2019-03-25T06:22:37.194Z,8.83
2019-03-25T06:25:07.895Z,9.07
2019-03-25T06:27:37.519Z,7.63
2019-03-25T06:30:09.180Z,8.00
2019-03-25T06:32:38.590Z,8.90
2019-03-25T06:35:09.518Z,3.17
2019-03-25T06:37:38.918Z,7.30
2019-03-25T06:40:09.283Z,7.83
2019-03-25T06:42:38.690Z,7.20
2019-03-25T06:45:08.849Z,5.27
2019-03-25T06:47:38.317Z,6.50
2019-03-25T06:50:09.149Z,6.33
2019-03-25T06:52:38.566Z,7.43
2019-03-25T06:55:09.273Z,5.93
2019-03-25T06:57:39.062Z,5.47
2019-03-25T07:00:11.954Z,6.37
2019-03-25T07:02:41.850Z,6.60
2019-03-25T07:05:13.090Z,7.67
2019-03-25T07:07:42.555Z,7.13
2019-03-25T07:10:12.514Z,7.00
2019-03-25T07:12:43.982Z,7.27
2019-03-25T07:15:13.664Z,5.13
2019-03-25T07:17:43.216Z,5.77
2019-03-25T07:20:12.912Z,6.47
2019-03-25T07:22:42.321Z,6.60
2019-03-25T07:25:13.285Z,6.20
2019-03-25T07:27:42.705Z,6.43
2019-03-25T07:30:12.465Z,5.57
2019-03-25T07:32:41.870Z,6.90
2019-03-25T07:35:12.250Z,6.80
2019-03-25T07:37:41.655Z,6.10
2019-03-25T07:40:11.560Z,4.90
2019-03-25T07:42:42.900Z,4.70
2019-03-25T07:45:12.954Z,4.07
2019-03-25T07:47:42.365Z,5.80
2019-03-25T07:50:12.012Z,3.87
2019-03-25T07:52:41.423Z,3.67
2019-03-25T07:55:11.610Z,3.93
2019-03-25T07:57:48.050Z,4.97
2019-03-25T08:00:14.377Z,3.83
2019-03-25T08:02:43.806Z,4.27
2019-03-25T08:05:14.499Z,3.73
2019-03-25T08:07:43.985Z,3.93
2019-03-25T08:10:13.915Z,3.83
2019-03-25T08:12:43.452Z,3.00
2019-03-25T08:15:13.155Z,4.90
2019-03-25T08:17:42.682Z,3.70
2019-03-25T08:20:12.393Z,5.33
2019-03-25T08:22:41.808Z,6.17
2019-03-25T08:25:11.768Z,5.30
2019-03-25T08:27:41.269Z,5.57
2019-03-25T08:30:11.237Z,5.37
2019-03-25T08:32:40.640Z,5.50
2019-03-25T08:35:10.511Z,4.33
2019-03-25T08:37:39.981Z,3.83
2019-03-25T08:40:10.993Z,5.43
2019-03-25T08:42:40.400Z,5.23
2019-03-25T08:45:11.682Z,5.27
2019-03-25T08:47:41.232Z,4.87
2019-03-25T08:50:11.680Z,4.87
2019-03-25T08:52:41.167Z,3.00
2019-03-25T08:55:10.796Z,2.93
2019-03-25T08:57:40.236Z,5.20
2019-03-25T09:00:13.071Z,5.70
2019-03-25T09:02:42.615Z,4.63
2019-03-25T09:05:12.445Z,3.97
2019-03-25T09:07:41.886Z,5.57
2019-03-25T09:10:12.202Z,3.90
2019-03-25T09:12:41.690Z,6.13
2019-03-25T09:15:11.834Z,5.53
2019-03-25T09:17:41.338Z,5.23
2019-03-25T09:20:11.493Z,6.83
2019-03-25T09:22:41.010Z,5.37
2019-03-25T09:25:10.767Z,5.57
2019-03-25T09:27:40.184Z,4.60
2019-03-25T09:30:10.597Z,4.80
2019-03-25T09:32:40.091Z,3.83
2019-03-25T09:35:10.925Z,4.57
2019-03-25T09:37:40.523Z,4.93
2019-03-25T09:40:10.975Z,3.87
2019-03-25T09:42:40.426Z,4.90
2019-03-25T09:45:10.587Z,6.07
2019-03-25T09:47:40.108Z,6.57
2019-03-25T09:50:10.931Z,4.03
2019-03-25T09:52:40.534Z,4.30
2019-03-25T09:55:10.355Z,3.97
2019-03-25T09:57:39.770Z,3.83
2019-03-25T10:00:12.570Z,2.83
2019-03-25T10:02:42.064Z,3.90
2019-03-25T10:05:11.700Z,7.63
2019-03-25T10:07:42.332Z,7.33
2019-03-25T10:10:12.063Z,7.50
2019-03-25T10:12:41.586Z,5.17
2019-03-25T10:15:11.339Z,7.13
2019-03-25T10:17:40.755Z,6.80
2019-03-25T10:20:10.510Z,5.10
2019-03-25T10:22:40.042Z,6.20
2019-03-25T10:25:10.778Z,5.57
2019-03-25T10:27:40.314Z,5.77
2019-03-25T10:30:12.057Z,6.70
2019-03-25T10:32:41.548Z,7.03
2019-03-25T10:35:11.493Z,5.67
2019-03-25T10:37:41.012Z,4.70
2019-03-25T10:40:10.825Z,6.83
2019-03-25T10:42:40.245Z,6.30
2019-03-25T10:45:10.771Z,3.90
2019-03-25T10:47:40.199Z,4.53
2019-03-25T10:50:09.855Z,6.23
2019-03-25T10:52:39.410Z,7.23
2019-03-25T10:55:09.942Z,5.03
2019-03-25T10:57:40.840Z,3.50
2019-03-25T11:00:11.945Z,4.30
2019-03-25T11:02:41.498Z,4.93
2019-03-25T11:05:12.421Z,4.30
2019-03-25T11:10:14.152Z,3.43
2019-03-25T11:12:44.684Z,4.97
2019-03-25T11:15:14.262Z,5.40
2019-03-25T11:17:43.683Z,5.37
2019-03-25T11:20:13.626Z,4.73
2019-03-25T11:22:43.140Z,7.13
2019-03-25T11:25:14.638Z,10.83
2019-03-25T11:27:53.957Z,7.43
2019-03-25T11:30:18.232Z,8.20
2019-03-25T11:32:47.678Z,6.07
2019-03-25T11:35:17.318Z,6.23
2019-03-25T11:37:46.725Z,4.67
2019-03-25T11:40:16.342Z,7.43
2019-03-25T11:42:45.751Z,4.63
2019-03-25T11:45:15.406Z,3.63
2019-03-25T11:47:44.837Z,5.13
2019-03-25T11:50:15.421Z,4.67
2019-03-25T11:52:46.439Z,4.50
2019-03-25T11:55:17.751Z,3.27
2019-03-25T11:57:47.335Z,3.40
2019-03-25T12:00:16.991Z,3.23
2019-03-25T12:02:46.401Z,2.60
2019-03-25T12:05:16.192Z,2.37
2019-03-25T12:07:45.591Z,2.27
2019-03-25T12:10:15.395Z,2.57
2019-03-25T12:12:44.799Z,2.67
2019-03-25T12:15:14.486Z,3.23
2019-03-25T12:17:43.969Z,3.83
2019-03-25T12:20:13.865Z,3.37
2019-03-25T12:22:43.270Z,2.67
2019-03-25T12:25:12.851Z,3.60
2019-03-25T12:27:42.256Z,3.47
2019-03-25T12:30:11.857Z,4.70
2019-03-25T12:32:41.316Z,4.10
2019-03-25T12:35:11.181Z,3.43
2019-03-25T12:37:40.583Z,3.90
2019-03-25T12:40:10.474Z,2.87
2019-03-25T12:42:39.950Z,2.80
2019-03-25T12:45:11.041Z,2.10
2019-03-25T12:47:40.451Z,2.33
2019-03-25T12:50:11.495Z,1.80
2019-03-25T12:52:42.085Z,2.40
2019-03-25T12:55:13.180Z,2.50
2019-03-25T12:57:42.751Z,2.33
2019-03-25T13:00:12.681Z,2.13
2019-03-25T13:02:42.085Z,2.47
2019-03-25T13:05:11.836Z,2.23
2019-03-25T13:07:41.237Z,1.53
2019-03-25T13:10:10.923Z,3.13
2019-03-25T13:12:40.426Z,2.10
2019-03-25T13:15:10.129Z,3.10
2019-03-25T13:17:39.543Z,3.30
2019-03-25T13:20:09.490Z,3.17
2019-03-25T13:22:38.890Z,3.00
2019-03-25T13:25:08.760Z,2.73
2019-03-25T13:27:38.170Z,2.00
2019-03-25T13:30:08.421Z,2.60
2019-03-25T13:32:37.938Z,2.63
2019-03-25T13:35:08.150Z,2.73
2019-03-25T13:37:37.581Z,2.30
2019-03-25T13:40:08.147Z,2.67
2019-03-25T13:42:37.546Z,1.67
2019-03-25T13:45:13.869Z,2.30
2019-03-25T13:47:43.547Z,2.30
2019-03-25T13:50:13.199Z,1.67
2019-03-25T13:52:42.668Z,1.93
2019-03-25T13:55:12.231Z,2.20
2019-03-25T13:57:41.690Z,2.23
2019-03-25T14:00:11.550Z,2.43
2019-03-25T14:02:41.933Z,2.20
2019-03-25T14:05:11.557Z,1.53
2019-03-25T14:07:41.015Z,1.50
2019-03-25T14:10:12.198Z,1.47
2019-03-25T14:12:42.348Z,1.67
2019-03-25T14:15:12.262Z,3.40
2019-03-25T14:17:41.667Z,1.70
2019-03-25T14:20:13.214Z,3.00
2019-03-25T14:22:42.632Z,2.00
2019-03-25T14:25:12.089Z,1.70
2019-03-25T14:27:41.491Z,2.07
2019-03-25T14:30:14.739Z,3.03
2019-03-25T14:32:42.722Z,1.80
2019-03-25T14:35:12.330Z,2.77
2019-03-25T14:37:41.778Z,1.90
2019-03-25T14:40:11.199Z,2.27
2019-03-25T14:42:40.645Z,3.60
2019-03-25T14:45:10.588Z,2.20
2019-03-25T14:47:40.102Z,1.87
2019-03-25T14:50:10.371Z,2.30
2019-03-25T14:52:40.909Z,2.00
2019-03-25T14:55:10.580Z,2.43
2019-03-25T14:57:40.031Z,2.33
2019-03-25T15:00:10.147Z,2.10
2019-03-25T15:02:39.577Z,2.30
2019-03-25T15:05:10.136Z,1.57
2019-03-25T15:07:39.639Z,1.90
2019-03-25T15:10:09.481Z,1.50
2019-03-25T15:12:39.002Z,2.23
2019-03-25T15:15:09.309Z,2.47
2019-03-25T15:17:38.757Z,2.53
2019-03-25T15:20:10.175Z,2.37
2019-03-25T15:22:39.941Z,2.23
2019-03-25T15:25:09.793Z,2.07
2019-03-25T15:27:40.365Z,2.47
2019-03-25T15:30:10.511Z,2.60
2019-03-25T15:32:40.000Z,1.53
2019-03-25T15:35:10.004Z,2.40
2019-03-25T15:37:39.453Z,2.30
2019-03-25T15:40:10.333Z,2.80
2019-03-25T15:42:39.865Z,2.70
2019-03-25T15:45:09.704Z,3.53
2019-03-25T15:47:40.365Z,2.77
2019-03-25T15:50:11.723Z,3.30
2019-03-25T15:52:41.350Z,3.97
2019-03-25T15:55:12.292Z,3.80
2019-03-25T15:57:41.776Z,4.00
2019-03-25T16:00:17.733Z,3.80
2019-03-25T16:02:47.292Z,5.17
2019-03-25T16:05:17.117Z,4.47
2019-03-25T16:07:46.582Z,4.50
2019-03-25T16:10:17.209Z,4.20
2019-03-25T16:12:47.120Z,3.60
2019-03-25T16:15:31.681Z,3.07
2019-03-25T16:18:01.167Z,3.93
2019-03-25T16:20:30.596Z,4.20
2019-03-25T16:23:00.059Z,5.77
2019-03-25T16:25:29.487Z,3.70
2019-03-25T16:27:59.048Z,3.57
2019-03-25T16:30:29.467Z,4.10
2019-03-25T16:32:58.901Z,4.13
2019-03-25T16:35:28.346Z,4.67
2019-03-25T16:38:00.598Z,4.47
2019-03-25T16:40:30.033Z,4.20
2019-03-25T16:43:00.066Z,4.80
2019-03-25T16:45:30.403Z,5.20
2019-03-25T16:47:59.835Z,5.07
2019-03-25T16:50:29.241Z,5.70
2019-03-25T16:52:58.955Z,4.27
2019-03-25T16:55:28.504Z,5.37
2019-03-25T16:57:57.969Z,5.27
2019-03-25T17:00:27.911Z,5.50
2019-03-25T17:02:57.481Z,4.37
2019-03-25T17:05:26.943Z,2.90
2019-03-25T17:07:56.645Z,4.50
2019-03-25T17:10:26.071Z,3.98
2019-03-25T17:12:58.629Z,4.37
2019-03-25T17:15:28.132Z,4.43
2019-03-25T17:17:57.545Z,4.00
2019-03-25T17:20:26.959Z,2.97
2019-03-25T17:22:56.374Z,2.97
2019-03-25T17:25:25.788Z,3.17
2019-03-25T17:27:55.248Z,3.23
2019-03-25T17:30:24.843Z,3.47
2019-03-25T17:32:54.262Z,3.87
2019-03-25T17:35:23.717Z,1.73
2019-03-25T17:37:53.139Z,2.53
2019-03-25T17:40:22.738Z,2.97
2019-03-25T17:42:52.196Z,3.33
2019-03-25T17:45:22.764Z,2.53
2019-03-25T17:47:52.163Z,4.23
2019-03-25T17:50:21.659Z,2.93
2019-03-25T17:52:51.148Z,2.73
2019-03-25T17:55:21.662Z,2.77
2019-03-25T17:57:51.065Z,2.97
2019-03-25T18:00:41.401Z,2.73
2019-03-25T18:03:15.259Z,3.13
2019-03-25T18:05:44.446Z,3.93
2019-03-25T18:08:13.999Z,3.80
2019-03-25T18:10:44.539Z,3.50
2019-03-25T18:13:22.022Z,3.90
2019-03-25T18:15:45.080Z,3.73
2019-03-25T18:18:14.477Z,3.87
2019-03-25T18:20:43.930Z,4.33
2019-03-25T18:23:13.462Z,3.80
2019-03-25T18:25:42.914Z,3.43
2019-03-25T18:28:12.315Z,4.57
2019-03-25T18:30:41.735Z,3.57
2019-03-25T18:33:11.133Z,3.07
2019-03-25T18:35:40.560Z,3.07
2019-03-25T18:38:10.385Z,3.10
2019-03-25T18:40:39.825Z,3.37
2019-03-25T18:43:09.371Z,2.77
2019-03-25T18:45:38.918Z,2.67
2019-03-25T18:48:08.414Z,2.30
2019-03-25T18:50:37.835Z,2.50
2019-03-25T18:53:07.301Z,2.90
2019-03-25T18:55:36.794Z,5.47
2019-03-25T18:58:06.939Z,5.57
2019-03-25T19:00:37.363Z,5.40
2019-03-25T19:03:06.861Z,3.63
2019-03-25T19:05:36.895Z,3.07
2019-03-25T19:08:06.638Z,2.83
2019-03-25T19:10:36.143Z,3.17
2019-03-25T19:13:05.563Z,3.90
2019-03-25T19:15:35.019Z,4.20
2019-03-25T19:18:04.491Z,4.63
2019-03-25T19:20:33.919Z,4.83
2019-03-25T19:23:03.388Z,5.20
2019-03-25T19:25:32.887Z,5.30
2019-03-25T19:28:03.835Z,4.10
2019-03-25T19:30:33.316Z,3.33
2019-03-25T19:33:02.790Z,4.07
2019-03-25T19:35:32.258Z,5.70
2019-03-25T19:38:01.708Z,3.90
2019-03-25T19:40:31.132Z,5.43
2019-03-25T19:43:00.578Z,3.50
2019-03-25T19:45:30.194Z,3.53
2019-03-25T19:47:59.713Z,3.57
2019-03-25T19:50:29.218Z,2.60
2019-03-25T19:52:58.697Z,2.63
2019-03-25T19:55:28.174Z,2.70
2019-03-25T19:57:57.606Z,2.57
2019-03-25T20:00:35.927Z,2.90
2019-03-25T20:03:06.184Z,2.33
2019-03-25T20:05:35.818Z,2.90
2019-03-25T20:08:05.468Z,2.23
2019-03-25T20:10:36.718Z,4.27
2019-03-25T20:13:06.474Z,2.57
2019-03-25T20:15:45.899Z,2.07
2019-03-25T20:18:09.746Z,2.57
2019-03-25T20:20:39.211Z,3.13
2019-03-25T20:23:08.712Z,2.80
2019-03-25T20:25:38.124Z,2.73
2019-03-25T20:28:07.675Z,3.20
2019-03-25T20:30:37.232Z,3.40
2019-03-25T20:33:06.815Z,3.83
2019-03-25T20:35:36.346Z,3.47
2019-03-25T20:38:05.841Z,4.07
2019-03-25T20:40:35.402Z,4.50
2019-03-25T20:43:04.792Z,4.50
2019-03-25T20:45:34.282Z,4.77
2019-03-25T20:48:03.977Z,4.03
2019-03-25T20:50:33.541Z,3.40
2019-03-25T20:53:05.567Z,3.87
2019-03-25T20:55:34.995Z,5.70
2019-03-25T20:58:04.456Z,5.53
2019-03-25T21:00:51.570Z,6.15
2019-03-25T21:03:23.255Z,3.97
2019-03-25T21:05:52.758Z,4.13
2019-03-25T21:08:22.233Z,5.63
2019-03-25T21:10:51.802Z,6.73
2019-03-25T21:13:21.267Z,5.40
2019-03-25T21:15:50.849Z,6.50
2019-03-25T21:18:20.435Z,6.60
2019-03-25T21:20:49.843Z,5.47
2019-03-25T21:23:20.591Z,7.30
2019-03-25T21:25:50.128Z,6.17
2019-03-25T21:28:19.625Z,5.93
2019-03-25T21:30:49.103Z,4.87
2019-03-25T21:33:18.639Z,5.67
2019-03-25T21:35:52.491Z,4.97
2019-03-25T21:38:22.012Z,5.90
2019-03-25T21:40:51.485Z,6.03
2019-03-25T21:43:21.103Z,5.60
2019-03-25T21:45:51.497Z,5.53
2019-03-25T21:48:21.121Z,5.50
2019-03-25T21:50:50.603Z,6.47
2019-03-25T21:53:20.086Z,6.67
2019-03-25T21:55:49.565Z,7.10
2019-03-25T21:58:19.089Z,5.83
2019-03-25T22:00:48.644Z,6.20
2019-03-25T22:03:18.329Z,7.63
2019-03-25T22:05:47.745Z,7.70
2019-03-25T22:08:17.219Z,7.13
2019-03-25T22:10:46.630Z,6.00
2019-03-25T22:13:16.155Z,3.90
2019-03-25T22:15:45.654Z,7.27
2019-03-25T22:18:15.078Z,6.53
2019-03-25T22:20:44.713Z,6.80
2019-03-25T22:23:14.316Z,7.07
2019-03-25T22:25:43.725Z,5.97
2019-03-25T22:28:13.290Z,5.83
2019-03-25T22:30:43.055Z,6.80
2019-03-25T22:33:25.092Z,7.10
2019-03-25T22:35:47.037Z,6.23
2019-03-25T22:38:16.552Z,7.00
2019-03-25T22:40:45.961Z,7.13
2019-03-25T22:43:15.414Z,7.70
2019-03-25T22:45:44.827Z,7.90
2019-03-25T22:48:14.371Z,6.70
2019-03-25T22:50:43.782Z,6.80
2019-03-25T22:53:13.273Z,7.30
2019-03-25T22:55:42.686Z,7.00
2019-03-25T22:58:12.368Z,6.90
2019-03-25T23:00:45.579Z,7.03
2019-03-25T23:03:18.744Z,7.67
2019-03-25T23:05:48.865Z,7.37
2019-03-25T23:08:21.961Z,8.30
2019-03-25T23:10:52.923Z,8.03
2019-03-25T23:13:22.850Z,8.20
2019-03-25T23:15:52.764Z,7.77
2019-03-25T23:18:22.811Z,8.70
2019-03-25T23:20:52.889Z,8.90
2019-03-25T23:23:24.452Z,8.03
2019-03-25T23:25:55.979Z,8.87
2019-03-25T23:28:28.457Z,8.97
2019-03-25T23:30:59.979Z,9.60
2019-03-25T23:33:29.829Z,8.67
2019-03-25T23:35:59.500Z,7.90
2019-03-25T23:38:28.989Z,8.50
2019-03-25T23:40:58.418Z,8.10
2019-03-25T23:43:27.897Z,7.30
2019-03-25T23:45:57.339Z,9.03
2019-03-25T23:48:27.930Z,7.53
2019-03-25T23:50:57.445Z,8.50
2019-03-25T23:53:26.926Z,7.93
2019-03-25T23:55:56.400Z,8.20
2019-03-25T23:58:25.932Z,9.17
